Terminal Aerodrome Forecast
Issued by NWS

Home | Current Version | Previous Version | Text Only | Print | Product List | Glossary On
Versions: 1 2 3 4 5 6 7 8 9 10 11 12 13 14 15 16 17
000
FTUS45 KBOU 040118 AAA
TAFAPA
TAF AMD
KAPA 040118Z 0401/0424 03008KT P6SM FEW040
     FM040300 14006KT P6SM FEW070 FEW220
     FM040500 19009KT P6SM SKC
     FM041500 VRB06KT P6SM SKC
     FM041800 10010KT P6SM FEW080=

USA.gov is the U.S. government's official web portal to all federal, state and local government web resources and services.